Aberdeen, California
Current Conditions -  °F | °C
As of 3:56 AM on Saturday 01 Nov 2014 (Local Time) from KBIH Reporting Station
Clear Clear  
Wind Chill: 51°   Ceiling: Unl
Heat Index: 51°   Visibility: 10mi
Dew Point: 38°   Wind: 6mph
Humidity: 61%   Direction: NA
Pressure: 29.57"   Gusts: NA
Location:  36.9237°N, 117.897°W
Report Text: KBIH 011056Z AUTO VRB05KT 10SM CLR 11/03 A2957 RMK AO2 SLP973 T01060033
Loading
Personal Weather Stations






























Interactive Weather Map
Tropical Storm Tracking
New forecast layout! Learn more

10-Day Weather Forecast

Advertisements
Track Severe Weather on mobile